createdAt,value
2023-02-05T00:03:10.250Z,102319.02
2023-02-05T00:08:14.278Z,102317.31
2023-02-05T00:13:18.091Z,102323.27
2023-02-05T00:18:21.873Z,102320.55
2023-02-05T00:23:25.684Z,102320.54
2023-02-05T00:28:33.107Z,102323.29
2023-02-05T00:33:37.048Z,102321.40
2023-02-05T00:38:42.499Z,102323.45
2023-02-05T00:43:46.931Z,102319.34
2023-02-05T00:48:51.216Z,102322.06
2023-02-05T00:53:55.740Z,102319.00
2023-02-05T00:59:01.547Z,102326.33
2023-02-05T01:04:05.633Z,102325.31
2023-02-05T01:09:09.929Z,102327.52
2023-02-05T01:14:14.006Z,102332.63
2023-02-05T01:19:17.874Z,102336.71
2023-02-05T01:24:22.457Z,102334.33
2023-02-05T01:29:28.419Z,102335.85
2023-02-05T01:34:33.330Z,102334.65
2023-02-05T01:39:37.848Z,102335.15
2023-02-05T01:44:41.669Z,102338.39
2023-02-05T01:49:46.591Z,102337.72
2023-02-05T01:54:53.719Z,102337.21
2023-02-05T01:59:58.126Z,102337.23
2023-02-05T02:05:07.997Z,102336.04
2023-02-05T02:10:14.797Z,102335.02
2023-02-05T02:15:23.590Z,102333.31
2023-02-05T02:20:32.522Z,102330.57
2023-02-05T02:25:42.375Z,102332.77
2023-02-05T02:31:06.339Z,102328.84
2023-02-05T02:36:16.247Z,102330.36
2023-02-05T02:41:30.751Z,102326.26
2023-02-05T02:46:41.372Z,102324.70
2023-02-05T02:51:46.622Z,102322.46
2023-02-05T02:56:52.248Z,102323.98
2023-02-05T03:01:59.051Z,102329.23
2023-02-05T03:07:10.298Z,102328.72
2023-02-05T03:12:14.893Z,102329.38
2023-02-05T03:17:21.995Z,102328.20
2023-02-05T03:22:26.357Z,102332.81
2023-02-05T03:27:30.279Z,102338.95
2023-02-05T03:33:21.436Z,102339.83
2023-02-05T03:38:54.597Z,102339.64
2023-02-05T03:44:13.223Z,102344.73
2023-02-05T03:49:52.766Z,102345.88
2023-02-05T03:55:07.182Z,102346.00
2023-02-05T04:00:13.387Z,102345.27
2023-02-05T04:05:24.746Z,102351.66
2023-02-05T04:10:30.950Z,102355.02
2023-02-05T04:15:36.693Z,102354.14
2023-02-05T04:20:43.382Z,102354.59
2023-02-05T04:25:54.080Z,102355.38
2023-02-05T04:31:01.356Z,102363.17
2023-02-05T04:36:08.759Z,102370.64
2023-02-05T04:41:13.567Z,102373.01
2023-02-05T04:46:17.501Z,102374.66
2023-02-05T04:51:21.353Z,102369.67
2023-02-05T04:56:25.103Z,102378.31
2023-02-05T05:01:29.053Z,102378.27
2023-02-05T05:06:32.941Z,102380.93
2023-02-05T05:11:36.858Z,102393.95
2023-02-05T05:16:40.668Z,102398.14
2023-02-05T05:21:44.346Z,102402.52
2023-02-05T05:26:48.069Z,102408.92
2023-02-05T05:31:55.281Z,102417.89
2023-02-05T05:36:59.196Z,102425.63
2023-02-05T05:42:21.706Z,102434.41
2023-02-05T05:47:26.180Z,102436.41
2023-02-05T05:52:32.352Z,102439.77
2023-02-05T05:57:36.796Z,102444.99
2023-02-05T06:02:41.985Z,102439.85
2023-02-05T06:07:47.111Z,102444.73
2023-02-05T06:12:56.210Z,102450.15
2023-02-05T06:18:00.112Z,102453.02
2023-02-05T06:23:04.010Z,102456.77
2023-02-05T06:28:07.951Z,102468.37
2023-02-05T06:33:13.273Z,102468.52
2023-02-05T06:38:17.065Z,102472.08
2023-02-05T06:43:20.851Z,102476.05
2023-02-05T06:48:24.601Z,102481.42
2023-02-05T06:53:28.316Z,102481.24
2023-02-05T06:58:32.072Z,102486.29
2023-02-05T07:03:35.945Z,102493.67
2023-02-05T07:08:40.316Z,102505.63
2023-02-05T07:13:44.041Z,102517.46
2023-02-05T07:18:48.351Z,102526.48
2023-02-05T07:23:52.115Z,102536.34
2023-02-05T07:28:56.216Z,102547.21
2023-02-05T07:34:00.126Z,102543.13
2023-02-05T07:39:04.424Z,102540.11
2023-02-05T07:44:08.047Z,102535.34
2023-02-05T07:49:11.971Z,102534.84
2023-02-05T07:54:16.105Z,102541.48
2023-02-05T07:59:20.306Z,102540.23
2023-02-05T08:04:24.773Z,102543.94
2023-02-05T08:09:28.572Z,102544.08
2023-02-05T08:14:32.525Z,102546.61
2023-02-05T08:19:36.211Z,102540.75
2023-02-05T08:24:39.952Z,102543.22
2023-02-05T08:29:43.751Z,102543.15
2023-02-05T08:34:47.347Z,102544.42
2023-02-05T08:39:51.770Z,102545.85
2023-02-05T08:44:59.338Z,102552.88
2023-02-05T08:50:06.745Z,102559.38
2023-02-05T08:55:11.393Z,102559.45
2023-02-05T09:00:15.925Z,102554.54
2023-02-05T09:05:20.308Z,102550.52
2023-02-05T09:10:27.935Z,102549.73
2023-02-05T09:15:33.085Z,102539.39
2023-02-05T09:20:42.328Z,102535.86
2023-02-05T09:25:46.311Z,102528.05
2023-02-05T09:30:50.080Z,102528.24
2023-02-05T09:35:55.213Z,102521.77
2023-02-05T09:41:33.836Z,102521.77
2023-02-05T09:46:58.654Z,102523.14
2023-02-05T09:52:10.457Z,102525.01
2023-02-05T09:57:21.062Z,102523.48
2023-02-05T10:02:32.196Z,102521.80
2023-02-05T10:08:13.331Z,102523.16
2023-02-05T10:13:36.527Z,102522.29
2023-02-05T10:19:14.953Z,102513.39
2023-02-05T10:24:38.332Z,102498.55
2023-02-05T10:30:14.615Z,102494.27
2023-02-05T10:35:38.888Z,102492.23
2023-02-05T10:40:46.994Z,102500.75
2023-02-05T10:45:53.216Z,102492.73
2023-02-05T10:51:06.477Z,102491.20
2023-02-05T10:56:16.737Z,102494.27
2023-02-05T11:01:41.859Z,102491.20
2023-02-05T11:06:49.986Z,102486.73
2023-02-05T11:12:02.826Z,102480.70
2023-02-05T11:17:45.104Z,102476.59
2023-02-05T11:22:48.705Z,102482.39
2023-02-05T11:28:00.332Z,102483.89
2023-02-05T11:33:26.655Z,102477.19
2023-02-05T11:38:42.499Z,102479.38
2023-02-05T11:43:51.266Z,102478.66
2023-02-05T11:48:58.876Z,102469.58
2023-02-05T11:54:05.456Z,102467.52
2023-02-05T11:59:22.467Z,102472.12
2023-02-05T12:04:27.023Z,102468.46
2023-02-05T12:09:32.155Z,102462.61
2023-02-05T12:15:20.112Z,102459.52
2023-02-05T12:20:34.831Z,102467.15
2023-02-05T12:26:20.564Z,102463.84
2023-02-05T12:32:00.772Z,102459.45
2023-02-05T12:37:39.076Z,102449.00
2023-02-05T12:42:47.262Z,102445.44
2023-02-05T12:48:01.214Z,102444.48
2023-02-05T12:53:55.543Z,102437.43
2023-02-05T12:59:26.908Z,102439.29
2023-02-05T13:04:46.265Z,102446.90
2023-02-05T13:10:00.906Z,102446.25
2023-02-05T13:15:24.211Z,102442.30
2023-02-05T13:20:59.129Z,102445.06
2023-02-05T13:26:09.620Z,102452.38
2023-02-05T13:31:27.166Z,102452.53
2023-02-05T13:36:57.559Z,102445.50
2023-02-05T13:42:25.553Z,102435.29
2023-02-05T13:47:40.992Z,102433.03
2023-02-05T13:53:09.616Z,102435.18
2023-02-05T13:58:21.272Z,102434.83
2023-02-05T14:03:38.489Z,102430.02
2023-02-05T14:08:42.748Z,102438.09
2023-02-05T14:14:21.517Z,102442.73
2023-02-05T14:19:45.987Z,102441.42
2023-02-05T14:24:51.239Z,102436.85
2023-02-05T14:29:55.627Z,102440.15
2023-02-05T14:35:29.664Z,102430.96
2023-02-05T14:40:39.232Z,102436.48
2023-02-05T14:45:49.771Z,102436.54
2023-02-05T14:51:10.338Z,102431.27
2023-02-05T14:56:34.582Z,102430.78
2023-02-05T15:02:00.572Z,102442.21
2023-02-05T15:07:12.819Z,102448.74
2023-02-05T15:13:09.093Z,102443.79
2023-02-05T15:18:18.773Z,102454.06
2023-02-05T15:23:28.867Z,102455.66
2023-02-05T15:28:37.923Z,102453.50
2023-02-05T15:34:19.548Z,102456.96
2023-02-05T15:40:08.910Z,102474.60
2023-02-05T15:45:47.077Z,102472.07
2023-02-05T15:51:01.592Z,102468.01
2023-02-05T15:56:20.493Z,102466.33
2023-02-05T16:01:48.457Z,102471.62
2023-02-05T16:06:53.866Z,102473.31
2023-02-05T16:12:12.949Z,102477.73
2023-02-05T16:17:45.594Z,102476.00
2023-02-05T16:23:07.480Z,102478.67
2023-02-05T16:28:40.651Z,102476.94
2023-02-05T16:34:01.078Z,102483.02
2023-02-05T16:39:11.627Z,102489.42
2023-02-05T16:44:32.266Z,102493.30
2023-02-05T16:49:38.951Z,102494.09
2023-02-05T16:54:47.741Z,102489.98
2023-02-05T17:00:03.527Z,102498.60
2023-02-05T17:05:27.966Z,102495.45
2023-02-05T17:10:56.956Z,102498.95
2023-02-05T17:16:28.538Z,102508.38
2023-02-05T17:21:40.857Z,102510.67
2023-02-05T17:26:46.768Z,102509.23
2023-02-05T17:32:06.389Z,102504.21
2023-02-05T17:37:13.177Z,102498.06
2023-02-05T17:42:23.917Z,102501.24
2023-02-05T17:47:30.458Z,102494.92
2023-02-05T17:52:39.796Z,102499.67
2023-02-05T17:57:48.556Z,102510.02
2023-02-05T18:02:56.360Z,102506.75
2023-02-05T18:08:04.057Z,102505.08
2023-02-05T18:13:11.234Z,102511.32
2023-02-05T18:18:20.656Z,102504.30
2023-02-05T18:23:30.274Z,102507.48
2023-02-05T18:28:36.430Z,102493.30
2023-02-05T18:33:44.820Z,102489.13
2023-02-05T18:38:52.374Z,102485.48
2023-02-05T18:43:58.845Z,102495.78
2023-02-05T18:49:05.207Z,102501.88
2023-02-05T18:54:10.428Z,102505.36
2023-02-05T18:59:20.004Z,102504.13
2023-02-05T19:04:29.085Z,102508.73
2023-02-05T19:09:34.723Z,102500.05
2023-02-05T19:14:42.544Z,102500.90
2023-02-05T19:20:00.700Z,102513.30
2023-02-05T19:25:15.595Z,102518.41
2023-02-05T19:30:21.615Z,102520.70
2023-02-05T19:35:28.567Z,102528.27
2023-02-05T19:40:37.736Z,102520.20
2023-02-05T19:45:43.394Z,102530.95
2023-02-05T19:50:48.466Z,102549.14
2023-02-05T19:55:55.040Z,102564.52
2023-02-05T20:01:02.832Z,102565.20
2023-02-05T20:06:12.067Z,102577.23
2023-02-05T20:11:18.994Z,102589.90
2023-02-05T20:16:26.783Z,102591.67
2023-02-05T20:21:32.184Z,102592.52
2023-02-05T20:26:38.182Z,102600.59
2023-02-05T20:31:54.398Z,102603.23
2023-02-05T20:37:02.432Z,102600.63
2023-02-05T20:42:10.924Z,102607.34
2023-02-05T20:47:22.729Z,102619.25
2023-02-05T20:52:28.901Z,102621.86
2023-02-05T20:57:33.946Z,102628.08
2023-02-05T21:02:39.868Z,102633.68
2023-02-05T21:07:45.425Z,102645.89
2023-02-05T21:12:51.621Z,102645.91
2023-02-05T21:17:55.931Z,102658.63
2023-02-05T21:23:01.725Z,102663.52
2023-02-05T21:28:07.753Z,102657.20
2023-02-05T21:33:13.448Z,102659.45
2023-02-05T21:38:18.525Z,102654.10
2023-02-05T21:43:23.960Z,102650.23
2023-02-05T21:48:32.507Z,102660.23
2023-02-05T21:53:40.034Z,102666.07
2023-02-05T21:58:47.806Z,102669.15
2023-02-05T22:03:57.337Z,102685.36
2023-02-05T22:09:04.385Z,102683.11
2023-02-05T22:14:09.598Z,102679.37
2023-02-05T22:19:13.606Z,102678.27
2023-02-05T22:24:18.967Z,102690.77
2023-02-05T22:29:23.587Z,102694.08
2023-02-05T22:34:28.459Z,102704.29
2023-02-05T22:39:34.434Z,102713.81
2023-02-05T22:44:38.932Z,102715.42
2023-02-05T22:49:43.517Z,102718.56
2023-02-05T22:54:47.446Z,102710.70
2023-02-05T22:59:51.147Z,102704.33
2023-02-05T23:04:54.902Z,102711.91
2023-02-05T23:09:58.604Z,102720.69
2023-02-05T23:15:02.402Z,102703.21
2023-02-05T23:20:10.249Z,102709.39
2023-02-05T23:25:17.127Z,102715.82
2023-02-05T23:30:21.540Z,102696.80
2023-02-05T23:35:25.788Z,102695.52
2023-02-05T23:40:29.567Z,102682.13
2023-02-05T23:45:37.183Z,102675.13
2023-02-05T23:50:44.274Z,102678.77
2023-02-05T23:55:50.161Z,102674.80
